LFSN 221600Z AUTO 19007KT 9999 SCT044 SCT120 OVC160 12/04 Q1027

ElémentsDécodage
LFSN Station météo située sur l'aérodrome de NANCY Essey
221600Z émis le 22 du mois à 16h00 UTC
AUTO Bulletin édité par un automate
19007KT vent du 190°, 07 noeuds
9999 visibilité horizontale supérieure à 10 Km
SCT044 nuages épars (3/8 à 4/8) à 4400 pieds
SCT120 nuages épars (3/8 à 4/8) à 12000 pieds
OVC160 couverture nuageuse totale (8/8) à 16000 pieds
12/04 température 12°C, point de rosée 04°C
 soit une humidité relative de 58%
Q1027 la pression au niveau de la mer (QNH) est de 1027 hPa